createdAt,value
2018-07-02T00:02:26.453Z,42.28
2018-07-02T00:04:54.593Z,42.17
2018-07-02T00:07:23.814Z,43.10
2018-07-02T00:09:52.402Z,42.42
2018-07-02T00:12:21.399Z,42.68
2018-07-02T00:14:50.373Z,42.56
2018-07-02T00:17:18.666Z,43.07
2018-07-02T00:19:46.934Z,42.45
2018-07-02T00:22:15.428Z,42.90
2018-07-02T00:24:43.490Z,42.55
2018-07-02T00:27:11.694Z,42.92
2018-07-02T00:29:40.000Z,43.58
2018-07-02T00:32:08.371Z,42.84
2018-07-02T00:34:36.499Z,42.98
2018-07-02T00:37:04.580Z,43.65
2018-07-02T00:39:32.639Z,43.07
2018-07-02T00:42:00.723Z,43.09
2018-07-02T00:44:28.812Z,43.95
2018-07-02T00:46:56.887Z,43.58
2018-07-02T00:49:24.965Z,43.45
2018-07-02T00:51:53.424Z,44.19
2018-07-02T00:54:21.492Z,44.17
2018-07-02T00:56:49.579Z,44.24
2018-07-02T00:59:17.650Z,43.85
2018-07-02T01:01:45.725Z,44.38
2018-07-02T01:04:13.825Z,44.22
2018-07-02T01:06:41.920Z,44.10
2018-07-02T01:09:10.408Z,44.43
2018-07-02T01:11:38.484Z,44.32
2018-07-02T01:14:07.027Z,45.33
2018-07-02T01:16:35.099Z,45.33
2018-07-02T01:19:03.187Z,45.40
2018-07-02T01:21:31.283Z,45.31
2018-07-02T01:23:59.369Z,45.40
2018-07-02T01:26:27.455Z,44.88
2018-07-02T01:28:55.544Z,44.71
2018-07-02T01:31:23.634Z,44.83
2018-07-02T01:33:51.871Z,45.31
2018-07-02T01:36:19.958Z,46.04
2018-07-02T01:38:48.022Z,45.36
2018-07-02T01:41:16.126Z,45.51
2018-07-02T01:43:44.272Z,46.03
2018-07-02T01:46:12.391Z,45.75
2018-07-02T01:48:40.454Z,45.83
2018-07-02T01:51:08.542Z,45.75
2018-07-02T01:53:36.610Z,46.03
2018-07-02T01:56:04.771Z,46.34
2018-07-02T01:58:32.860Z,47.04
2018-07-02T02:01:00.963Z,46.32
2018-07-02T02:03:29.059Z,46.66
2018-07-02T02:05:57.136Z,47.04
2018-07-02T02:08:25.272Z,47.52
2018-07-02T02:10:53.472Z,47.62
2018-07-02T02:13:21.554Z,47.16
2018-07-02T02:15:49.639Z,46.62
2018-07-02T02:18:17.737Z,46.83
2018-07-02T02:20:45.909Z,47.53
2018-07-02T02:23:13.983Z,47.58
2018-07-02T02:25:42.063Z,47.94
2018-07-02T02:28:10.197Z,48.09
2018-07-02T02:30:38.290Z,47.99
2018-07-02T02:33:06.372Z,47.96
2018-07-02T02:35:34.459Z,48.30
2018-07-02T02:38:02.567Z,48.34
2018-07-02T02:40:30.687Z,48.37
2018-07-02T02:42:58.767Z,48.52
2018-07-02T02:45:26.831Z,48.16
2018-07-02T02:47:54.915Z,47.95
2018-07-02T02:50:23.001Z,48.47
2018-07-02T02:52:51.085Z,48.72
2018-07-02T02:55:19.162Z,47.85
2018-07-02T02:57:47.235Z,49.11
2018-07-02T03:00:15.409Z,48.97
2018-07-02T03:02:43.494Z,48.45
2018-07-02T03:05:11.603Z,48.34
2018-07-02T03:07:39.771Z,49.16
2018-07-02T03:10:07.927Z,48.68
2018-07-02T03:12:36.045Z,49.10
2018-07-02T03:15:04.191Z,49.13
2018-07-02T03:17:32.262Z,48.89
2018-07-02T03:20:00.351Z,49.54
2018-07-02T03:22:28.414Z,50.20
2018-07-02T03:24:56.512Z,49.90
2018-07-02T03:27:24.702Z,49.84
2018-07-02T03:29:52.799Z,48.94
2018-07-02T03:32:20.898Z,49.46
2018-07-02T03:34:48.967Z,49.67
2018-07-02T03:37:17.258Z,49.62
2018-07-02T03:39:45.348Z,50.35
2018-07-02T03:42:13.503Z,49.99
2018-07-02T03:44:41.595Z,50.59
2018-07-02T03:47:09.682Z,49.94
2018-07-02T03:49:37.803Z,50.82
2018-07-02T03:52:05.923Z,50.96
2018-07-02T03:54:33.947Z,50.23
2018-07-02T03:57:02.182Z,51.10
2018-07-02T03:59:30.346Z,50.66
2018-07-02T04:01:58.448Z,51.75
2018-07-02T04:04:26.603Z,50.37
2018-07-02T04:06:54.949Z,50.49
2018-07-02T04:09:23.039Z,50.54
2018-07-02T04:11:51.218Z,51.16
2018-07-02T04:14:19.307Z,50.50
2018-07-02T04:16:47.392Z,51.00
2018-07-02T04:19:15.480Z,50.33
2018-07-02T04:21:44.255Z,50.41
2018-07-02T04:24:12.352Z,51.12
2018-07-02T04:26:41.730Z,51.17
2018-07-02T04:29:10.122Z,50.50
2018-07-02T04:31:38.246Z,50.16
2018-07-02T04:34:06.360Z,50.62
2018-07-02T04:36:34.503Z,50.21
2018-07-02T04:39:02.579Z,51.01
2018-07-02T04:41:30.648Z,50.06
2018-07-02T04:43:58.706Z,50.78
2018-07-02T04:46:26.806Z,50.92
2018-07-02T04:48:54.879Z,50.67
2018-07-02T04:51:23.052Z,50.29
2018-07-02T04:53:51.140Z,49.24
2018-07-02T04:56:19.288Z,50.03
2018-07-02T04:58:47.391Z,49.51
2018-07-02T05:01:15.468Z,49.83
2018-07-02T05:03:43.637Z,49.96
2018-07-02T05:06:11.711Z,49.22
2018-07-02T05:08:39.773Z,49.37
2018-07-02T05:11:07.866Z,49.11
2018-07-02T05:13:35.948Z,48.78
2018-07-02T05:16:04.262Z,49.20
2018-07-02T05:18:32.392Z,48.54
2018-07-02T05:21:00.482Z,48.05
2018-07-02T05:23:28.591Z,48.58
2018-07-02T05:25:56.656Z,48.31
2018-07-02T05:28:24.755Z,48.00
2018-07-02T05:30:52.859Z,47.53
2018-07-02T05:33:21.065Z,47.24
2018-07-02T05:35:49.128Z,47.20
2018-07-02T05:38:17.283Z,47.22
2018-07-02T05:40:45.359Z,47.08
2018-07-02T05:43:13.484Z,47.06
2018-07-02T05:45:41.619Z,47.13
2018-07-02T05:48:09.837Z,47.34
2018-07-02T05:50:37.911Z,47.37
2018-07-02T05:53:05.991Z,46.65
2018-07-02T05:55:34.060Z,46.54
2018-07-02T05:58:02.222Z,46.37
2018-07-02T06:00:30.349Z,46.78
2018-07-02T06:02:58.506Z,47.32
2018-07-02T06:05:26.560Z,46.34
2018-07-02T06:07:55.057Z,45.62
2018-07-02T06:10:23.101Z,46.05
2018-07-02T06:12:51.174Z,46.00
2018-07-02T06:15:19.278Z,45.18
2018-07-02T06:17:47.350Z,45.48
2018-07-02T06:20:15.445Z,45.17
2018-07-02T06:22:43.561Z,45.01
2018-07-02T06:25:11.640Z,44.80
2018-07-02T06:27:39.710Z,45.28
2018-07-02T06:30:07.931Z,44.62
2018-07-02T06:32:35.995Z,44.15
2018-07-02T06:35:04.112Z,44.33
2018-07-02T06:37:32.223Z,43.47
2018-07-02T06:40:00.303Z,43.56
2018-07-02T06:42:28.381Z,43.67
2018-07-02T06:44:56.577Z,44.01
2018-07-02T06:47:24.655Z,42.87
2018-07-02T06:49:52.738Z,42.39
2018-07-02T06:52:20.836Z,42.93
2018-07-02T06:54:48.923Z,43.87
2018-07-02T06:57:17.082Z,42.44
2018-07-02T06:59:45.147Z,42.79
2018-07-02T07:02:13.207Z,41.85
2018-07-02T07:04:41.312Z,41.96
2018-07-02T07:07:09.406Z,41.20
2018-07-02T07:09:37.543Z,40.62
2018-07-02T07:12:05.763Z,40.28
2018-07-02T07:14:33.931Z,41.08
2018-07-02T07:17:02.024Z,40.69
2018-07-02T07:19:30.107Z,40.71
2018-07-02T07:21:58.190Z,40.24
2018-07-02T07:24:26.301Z,39.55
2018-07-02T07:26:54.400Z,39.60
2018-07-02T07:29:22.475Z,40.49
2018-07-02T07:31:50.609Z,38.74
2018-07-02T07:34:18.686Z,39.23
2018-07-02T07:36:46.940Z,38.59
2018-07-02T07:39:15.039Z,39.07
2018-07-02T07:41:43.216Z,39.34
2018-07-02T07:44:11.286Z,38.33
2018-07-02T07:46:39.364Z,40.09
2018-07-02T07:49:07.440Z,38.77
2018-07-02T07:51:35.526Z,36.66
2018-07-02T07:54:03.675Z,36.27
2018-07-02T07:56:31.761Z,35.81
2018-07-02T07:58:59.841Z,36.29
2018-07-02T08:01:27.928Z,36.09
2018-07-02T08:03:56.020Z,36.17
2018-07-02T08:06:24.141Z,36.05
2018-07-02T08:08:52.252Z,36.18
2018-07-02T08:11:20.398Z,38.08
2018-07-02T08:13:48.495Z,35.84
2018-07-02T08:16:16.605Z,35.99
2018-07-02T08:18:44.719Z,36.62
2018-07-02T08:21:12.916Z,35.74
2018-07-02T08:23:40.987Z,35.06
2018-07-02T08:26:09.067Z,34.95
2018-07-02T08:28:37.247Z,36.09
2018-07-02T08:31:05.347Z,35.42
2018-07-02T08:33:33.483Z,35.34
2018-07-02T08:36:01.561Z,35.46
2018-07-02T08:38:29.642Z,34.75
2018-07-02T08:40:57.988Z,33.61
2018-07-02T08:43:26.166Z,34.81
2018-07-02T08:45:54.227Z,34.78
2018-07-02T08:48:22.327Z,35.05
2018-07-02T08:50:50.447Z,34.19
2018-07-02T08:53:18.571Z,34.04
2018-07-02T08:55:46.679Z,34.26
2018-07-02T08:58:14.833Z,34.30
2018-07-02T09:00:42.917Z,33.98
2018-07-02T09:03:11.009Z,35.23
2018-07-02T09:05:39.081Z,33.88
2018-07-02T09:08:07.216Z,33.60
2018-07-02T09:10:35.277Z,33.74
2018-07-02T09:13:03.360Z,34.03
2018-07-02T09:15:31.459Z,34.04
2018-07-02T09:17:59.535Z,33.89
2018-07-02T09:20:27.611Z,33.78
2018-07-02T09:22:55.936Z,33.54
2018-07-02T09:25:24.076Z,34.36
2018-07-02T09:27:52.216Z,32.96
2018-07-02T09:30:20.312Z,32.72
2018-07-02T09:32:48.390Z,32.83
2018-07-02T09:35:16.502Z,33.53
2018-07-02T09:37:44.586Z,33.49
2018-07-02T09:40:12.700Z,33.09
2018-07-02T09:42:40.844Z,32.96
2018-07-02T09:45:09.848Z,31.91
2018-07-02T09:47:37.943Z,32.48
2018-07-02T09:50:06.026Z,32.05
2018-07-02T09:52:34.276Z,32.64
2018-07-02T09:55:02.368Z,33.19
2018-07-02T09:57:30.464Z,32.02
2018-07-02T09:59:58.620Z,31.58
2018-07-02T10:02:26.710Z,31.45
2018-07-02T10:04:54.834Z,32.05
2018-07-02T10:07:22.963Z,32.19
2018-07-02T10:09:51.031Z,32.25
2018-07-02T10:12:19.123Z,32.35
2018-07-02T10:14:47.207Z,33.28
2018-07-02T10:17:15.315Z,32.93
2018-07-02T10:19:43.423Z,31.78
2018-07-02T10:22:11.523Z,31.61
2018-07-02T10:24:39.743Z,30.86
2018-07-02T10:27:07.906Z,31.02
2018-07-02T10:29:36.081Z,30.92
2018-07-02T10:32:04.151Z,31.65
2018-07-02T10:34:32.272Z,31.56
2018-07-02T10:37:00.355Z,31.39
2018-07-02T10:39:28.457Z,30.76
2018-07-02T10:41:56.568Z,31.81
2018-07-02T10:44:24.630Z,30.86
2018-07-02T10:46:52.837Z,32.13
2018-07-02T10:49:20.900Z,30.89
2018-07-02T10:51:48.991Z,31.63
2018-07-02T10:54:17.086Z,31.81
2018-07-02T10:56:45.158Z,31.64
2018-07-02T10:59:13.285Z,31.16
2018-07-02T11:01:41.362Z,31.04
2018-07-02T11:04:09.437Z,31.18
2018-07-02T11:06:37.510Z,31.86
2018-07-02T11:09:06.926Z,32.06
2018-07-02T11:11:35.161Z,31.93
2018-07-02T11:14:03.248Z,31.38
2018-07-02T11:16:31.329Z,30.39
2018-07-02T11:18:59.455Z,30.59
2018-07-02T11:21:27.546Z,30.23
2018-07-02T11:23:55.850Z,30.85
2018-07-02T11:26:23.927Z,30.41
2018-07-02T11:28:52.055Z,29.19
2018-07-02T11:31:20.156Z,30.20
2018-07-02T11:33:48.276Z,30.45
2018-07-02T11:36:16.360Z,31.14
2018-07-02T11:38:44.460Z,30.97
2018-07-02T11:41:12.843Z,30.74
2018-07-02T11:43:40.949Z,30.34
2018-07-02T11:46:09.057Z,30.45
2018-07-02T11:48:37.130Z,30.88
2018-07-02T11:51:05.290Z,29.92
2018-07-02T11:53:33.427Z,29.31
2018-07-02T11:56:01.517Z,28.97
2018-07-02T11:58:29.605Z,28.78
2018-07-02T12:00:57.682Z,29.66
2018-07-02T12:03:25.823Z,29.63
2018-07-02T12:05:53.912Z,28.66
2018-07-02T12:08:21.995Z,29.24
2018-07-02T12:10:50.169Z,29.01
2018-07-02T12:13:18.291Z,29.97
2018-07-02T12:15:46.379Z,29.19
2018-07-02T12:18:14.464Z,28.42
2018-07-02T12:20:42.552Z,29.64
2018-07-02T12:23:11.990Z,29.08
2018-07-02T12:25:40.655Z,29.38
2018-07-02T12:28:08.746Z,29.67
2018-07-02T12:30:36.839Z,29.67
2018-07-02T12:33:05.004Z,29.68
2018-07-02T12:35:33.121Z,29.23
2018-07-02T12:38:01.285Z,28.74
2018-07-02T12:40:29.379Z,29.14
2018-07-02T12:42:57.551Z,29.70
2018-07-02T12:45:25.636Z,28.97
2018-07-02T12:47:54.983Z,28.19
2018-07-02T12:50:23.091Z,29.61
2018-07-02T12:52:51.432Z,28.68
2018-07-02T12:55:19.543Z,28.19
2018-07-02T12:57:47.630Z,28.46
2018-07-02T13:00:16.017Z,29.12
2018-07-02T13:02:44.155Z,27.55
2018-07-02T13:05:12.239Z,27.68
2018-07-02T13:07:40.393Z,27.30
2018-07-02T13:10:08.495Z,26.63
2018-07-02T13:12:36.631Z,26.81
2018-07-02T13:15:05.039Z,26.80
2018-07-02T13:17:33.119Z,25.97
2018-07-02T13:20:01.236Z,26.82
2018-07-02T13:22:29.370Z,26.89
2018-07-02T13:24:57.471Z,26.75
2018-07-02T13:27:25.555Z,26.05
2018-07-02T13:29:53.675Z,26.97
2018-07-02T13:32:21.820Z,27.29
2018-07-02T13:34:50.571Z,26.62
2018-07-02T13:37:18.687Z,25.72
2018-07-02T13:39:46.807Z,25.73
2018-07-02T13:42:14.883Z,26.28
2018-07-02T13:44:43.006Z,26.36
2018-07-02T13:47:11.109Z,26.26
2018-07-02T13:49:39.190Z,25.32
2018-07-02T13:52:07.299Z,25.34
2018-07-02T13:54:35.398Z,25.69
2018-07-02T13:57:03.473Z,26.18
2018-07-02T13:59:31.543Z,25.72
2018-07-02T14:01:59.708Z,25.76
2018-07-02T14:04:27.792Z,26.19
2018-07-02T14:06:56.230Z,25.15
2018-07-02T14:09:24.315Z,24.68
2018-07-02T14:11:52.657Z,25.46
2018-07-02T14:14:20.756Z,25.73
2018-07-02T14:16:48.832Z,25.62
2018-07-02T14:19:16.960Z,26.52
2018-07-02T14:21:45.297Z,26.46
2018-07-02T14:24:13.451Z,26.83
2018-07-02T14:26:41.511Z,26.05
2018-07-02T14:29:09.599Z,26.41
2018-07-02T14:31:37.820Z,24.75
2018-07-02T14:34:05.911Z,25.53
2018-07-02T14:36:33.991Z,25.72
2018-07-02T14:39:02.104Z,25.52
2018-07-02T14:41:30.200Z,24.76
2018-07-02T14:43:58.305Z,25.15
2018-07-02T14:46:26.617Z,25.07
2018-07-02T14:48:54.726Z,25.24
2018-07-02T14:51:22.867Z,24.94
2018-07-02T14:53:50.984Z,24.95
2018-07-02T14:56:19.162Z,24.99
2018-07-02T14:58:47.320Z,24.07
2018-07-02T15:01:15.406Z,24.11
2018-07-02T15:03:43.609Z,24.23
2018-07-02T15:06:11.775Z,24.75
2018-07-02T15:08:39.854Z,26.00
2018-07-02T15:11:07.971Z,24.27
2018-07-02T15:13:36.055Z,25.85
2018-07-02T15:16:04.122Z,24.49
2018-07-02T15:18:32.210Z,24.37
2018-07-02T15:21:00.340Z,24.21
2018-07-02T15:23:28.523Z,24.83
2018-07-02T15:25:56.612Z,24.05
2018-07-02T15:28:24.667Z,24.15
2018-07-02T15:30:52.746Z,24.63
2018-07-02T15:33:20.828Z,24.83
2018-07-02T15:35:48.941Z,23.87
2018-07-02T15:38:16.997Z,24.24
2018-07-02T15:40:45.092Z,23.18
2018-07-02T15:43:13.176Z,23.64
2018-07-02T15:45:41.340Z,23.80
2018-07-02T15:48:09.507Z,23.83
2018-07-02T15:50:37.583Z,23.55
2018-07-02T15:53:30.412Z,22.97
2018-07-02T15:55:58.596Z,23.59
2018-07-02T15:58:26.731Z,23.65
2018-07-02T16:00:54.857Z,24.72
2018-07-02T16:03:23.323Z,24.30
2018-07-02T16:05:51.423Z,23.54
2018-07-02T16:08:19.523Z,23.58
2018-07-02T16:10:47.599Z,23.58
2018-07-02T16:13:15.661Z,23.36
2018-07-02T16:15:43.775Z,24.35
2018-07-02T16:18:11.915Z,23.69
2018-07-02T16:20:40.056Z,23.91
2018-07-02T16:23:08.132Z,23.73
2018-07-02T16:25:36.206Z,23.35
2018-07-02T16:28:04.284Z,24.59
2018-07-02T16:30:32.419Z,23.62
2018-07-02T16:33:00.514Z,23.38
2018-07-02T16:35:28.616Z,23.82
2018-07-02T16:37:56.683Z,23.88
2018-07-02T16:40:24.748Z,23.59
2018-07-02T16:42:52.898Z,24.13
2018-07-02T16:45:21.525Z,23.65
2018-07-02T16:47:49.617Z,22.34
2018-07-02T16:50:17.668Z,23.42
2018-07-02T16:52:45.748Z,22.97
2018-07-02T16:55:13.891Z,23.99
2018-07-02T16:57:42.049Z,22.53
2018-07-02T17:00:10.168Z,22.60
2018-07-02T17:02:38.263Z,21.78
2018-07-02T17:05:06.652Z,21.99
2018-07-02T17:07:34.751Z,21.60
2018-07-02T17:10:02.819Z,21.78
2018-07-02T17:12:30.891Z,20.26
2018-07-02T17:14:58.983Z,20.79
2018-07-02T17:17:27.058Z,19.98
2018-07-02T17:19:55.130Z,20.05
2018-07-02T17:22:23.246Z,21.03
2018-07-02T17:24:51.331Z,20.31
2018-07-02T17:27:19.409Z,20.17
2018-07-02T17:29:47.495Z,22.51
2018-07-02T17:32:15.563Z,20.00
2018-07-02T17:34:43.679Z,19.69
2018-07-02T17:37:11.797Z,19.63
2018-07-02T17:39:39.900Z,19.37
2018-07-02T17:42:08.007Z,19.43
2018-07-02T17:44:36.073Z,19.68
2018-07-02T17:47:04.168Z,19.10
2018-07-02T17:49:32.281Z,19.48
2018-07-02T17:52:00.429Z,20.83
2018-07-02T17:54:28.612Z,19.94
2018-07-02T17:56:56.856Z,20.68
2018-07-02T17:59:25.330Z,21.21
2018-07-02T18:01:53.495Z,21.60
2018-07-02T18:04:21.727Z,21.70
2018-07-02T18:06:49.874Z,23.46
2018-07-02T18:09:18.042Z,22.85
2018-07-02T18:11:46.281Z,22.94
2018-07-02T18:14:15.373Z,23.42
2018-07-02T18:16:43.535Z,23.13
2018-07-02T18:19:12.532Z,23.87
2018-07-02T18:21:43.078Z,22.92
2018-07-02T18:24:11.321Z,24.07
2018-07-02T18:26:39.461Z,24.45
2018-07-02T18:29:07.650Z,25.09
2018-07-02T18:31:35.760Z,23.65
2018-07-02T18:34:04.013Z,24.84
2018-07-02T18:36:32.598Z,24.04
2018-07-02T18:39:00.888Z,24.65
2018-07-02T18:41:29.041Z,25.66
2018-07-02T18:43:57.351Z,25.61
2018-07-02T18:46:25.854Z,26.58
2018-07-02T18:48:54.680Z,26.32
2018-07-02T18:51:23.033Z,26.82
2018-07-02T18:53:51.467Z,26.17
2018-07-02T18:56:19.618Z,27.21
2018-07-02T18:58:47.759Z,26.68
2018-07-02T19:01:15.886Z,27.34
2018-07-02T19:03:44.010Z,26.95
2018-07-02T19:06:12.202Z,26.90
2018-07-02T19:08:40.498Z,27.77
2018-07-02T19:11:08.598Z,28.29
2018-07-02T19:13:36.803Z,27.47
2018-07-02T19:16:05.689Z,27.19
2018-07-02T19:18:34.937Z,27.18
2018-07-02T19:21:03.976Z,28.32
2018-07-02T19:23:32.250Z,28.39
2018-07-02T19:26:00.521Z,27.57
2018-07-02T19:28:28.725Z,28.50
2018-07-02T19:30:56.822Z,28.01
2018-07-02T19:33:24.954Z,27.68
2018-07-02T19:35:55.234Z,28.76
2018-07-02T19:38:23.414Z,28.55
2018-07-02T19:40:52.596Z,28.94
2018-07-02T19:43:20.899Z,28.48
2018-07-02T19:45:49.366Z,29.42
2018-07-02T19:48:17.633Z,29.49
2018-07-02T19:50:45.876Z,29.25
2018-07-02T19:53:14.157Z,29.02
2018-07-02T19:55:43.259Z,29.55
2018-07-02T19:58:11.418Z,30.27
2018-07-02T20:00:40.051Z,29.81
2018-07-02T20:03:08.230Z,30.23
2018-07-02T20:05:36.404Z,30.73
2018-07-02T20:08:04.589Z,30.00
2018-07-02T20:10:33.059Z,30.88
2018-07-02T20:13:01.206Z,30.23
2018-07-02T20:15:29.405Z,30.67
2018-07-02T20:18:08.014Z,31.45
2018-07-02T20:20:36.366Z,30.89
2018-07-02T20:25:46.092Z,31.78
2018-07-02T20:28:14.918Z,32.21
2018-07-02T20:30:43.220Z,31.93
2018-07-02T20:33:18.539Z,31.97
2018-07-02T20:35:46.823Z,32.07
2018-07-02T20:38:15.312Z,32.51
2018-07-02T20:40:43.498Z,32.92
2018-07-02T20:43:12.135Z,33.33
2018-07-02T20:45:41.029Z,33.10
2018-07-02T20:48:09.207Z,33.25
2018-07-02T20:50:37.319Z,33.43
2018-07-02T20:53:20.024Z,33.19
2018-07-02T20:55:48.560Z,33.62
2018-07-02T20:58:17.479Z,33.97
2018-07-02T21:00:48.046Z,34.17
2018-07-02T21:03:22.849Z,34.30
2018-07-02T21:05:52.825Z,34.60
2018-07-02T21:08:22.959Z,34.36
2018-07-02T21:10:56.408Z,34.54
2018-07-02T21:13:30.321Z,34.68
2018-07-02T21:15:59.207Z,34.64
2018-07-02T21:18:38.758Z,34.96
2018-07-02T21:21:06.883Z,35.26
2018-07-02T21:28:48.415Z,35.44
2018-07-02T21:31:28.652Z,35.77
2018-07-02T21:39:29.567Z,36.54
2018-07-02T21:42:02.027Z,36.65
2018-07-02T21:44:32.214Z,36.39
2018-07-02T21:47:00.652Z,36.80
2018-07-02T21:49:28.956Z,36.83
2018-07-02T21:51:57.392Z,37.13
2018-07-02T21:54:25.599Z,37.16
2018-07-02T21:56:53.823Z,37.22
2018-07-02T21:59:22.197Z,36.94
2018-07-02T22:01:50.397Z,37.21
2018-07-02T22:04:20.330Z,37.40
2018-07-02T22:06:50.767Z,37.59
2018-07-02T22:09:18.978Z,37.52
2018-07-02T22:11:47.124Z,37.61
2018-07-02T22:14:15.255Z,37.97
2018-07-02T22:16:43.438Z,38.08
2018-07-02T22:21:38.807Z,38.13
2018-07-02T22:24:06.884Z,37.88
2018-07-02T22:26:36.753Z,38.06
2018-07-02T22:29:05.556Z,37.89
2018-07-02T22:31:34.865Z,37.66
2018-07-02T22:34:03.281Z,37.67
2018-07-02T22:36:31.439Z,37.95
2018-07-02T22:38:59.740Z,38.49
2018-07-02T22:41:28.563Z,38.21
2018-07-02T22:43:57.299Z,39.38
2018-07-02T22:46:25.880Z,38.54
2018-07-02T22:48:54.089Z,38.39
2018-07-02T22:51:22.315Z,38.53
2018-07-02T22:53:50.733Z,38.74
2018-07-02T22:56:19.030Z,38.71
2018-07-02T22:58:47.235Z,39.09
2018-07-02T23:01:15.459Z,39.31
2018-07-02T23:03:43.589Z,39.51
2018-07-02T23:06:11.708Z,38.93
2018-07-02T23:08:39.932Z,38.58
2018-07-02T23:11:08.658Z,38.60
2018-07-02T23:13:36.852Z,38.95
2018-07-02T23:16:05.558Z,39.35
2018-07-02T23:18:34.465Z,39.34
2018-07-02T23:21:03.032Z,39.25
2018-07-02T23:23:32.217Z,39.12
2018-07-02T23:26:00.380Z,38.29
2018-07-02T23:28:28.558Z,38.87
2018-07-02T23:30:56.691Z,39.19
2018-07-02T23:33:24.860Z,39.56
2018-07-02T23:35:53.017Z,39.67
2018-07-02T23:38:21.542Z,39.19
2018-07-02T23:40:49.790Z,39.30
2018-07-02T23:43:18.087Z,38.86
2018-07-02T23:45:46.566Z,39.96
2018-07-02T23:48:14.865Z,40.08
2018-07-02T23:50:42.983Z,39.25
2018-07-02T23:53:11.361Z,40.25
2018-07-02T23:55:40.511Z,40.41
2018-07-02T23:58:08.883Z,39.68
